createdAt,value
2023-03-05T00:00:48.102Z,4.97
2023-03-05T00:03:17.643Z,4.60
2023-03-05T00:05:45.782Z,4.65
2023-03-05T00:08:13.844Z,4.25
2023-03-05T00:10:41.950Z,4.00
2023-03-05T00:13:09.980Z,3.58
2023-03-05T00:15:42.376Z,4.50
2023-03-05T00:18:10.566Z,4.07
2023-03-05T00:20:39.935Z,3.75
2023-03-05T00:23:08.075Z,4.10
2023-03-05T00:25:37.640Z,4.50
2023-03-05T00:28:06.066Z,4.32
2023-03-05T00:30:35.576Z,3.83
2023-03-05T00:33:03.849Z,4.22
2023-03-05T00:35:33.655Z,4.50
2023-03-05T00:38:04.510Z,4.18
2023-03-05T00:40:35.977Z,4.15
2023-03-05T00:43:04.361Z,3.78
2023-03-05T00:45:32.811Z,4.53
2023-03-05T00:48:01.396Z,4.93
2023-03-05T00:50:29.865Z,4.50
2023-03-05T00:52:57.975Z,4.00
2023-03-05T00:55:28.142Z,3.63
2023-03-05T00:57:56.254Z,4.53
2023-03-05T01:00:24.462Z,4.90
2023-03-05T01:02:52.521Z,5.03
2023-03-05T01:05:21.298Z,4.45
2023-03-05T01:07:49.308Z,4.50
2023-03-05T01:10:17.997Z,5.10
2023-03-05T01:12:47.386Z,4.85
2023-03-05T01:15:15.694Z,4.35
2023-03-05T01:17:43.810Z,4.97
2023-03-05T01:20:15.073Z,5.20
2023-03-05T01:22:43.242Z,5.82
2023-03-05T01:25:11.560Z,5.35
2023-03-05T01:27:39.812Z,4.55
2023-03-05T01:30:10.762Z,4.53
2023-03-05T01:32:38.989Z,4.88
2023-03-05T01:35:08.613Z,5.30
2023-03-05T01:37:36.764Z,4.68
2023-03-05T01:40:06.183Z,5.20
2023-03-05T01:42:34.542Z,6.45
2023-03-05T01:45:07.506Z,6.57
2023-03-05T01:47:37.286Z,4.50
2023-03-05T01:50:07.153Z,6.65
2023-03-05T01:52:37.708Z,5.28
2023-03-05T01:55:09.303Z,6.55
2023-03-05T01:57:41.702Z,5.07
2023-03-05T02:00:13.929Z,6.07
2023-03-05T02:02:44.749Z,5.75
2023-03-05T02:05:17.495Z,5.63
2023-03-05T02:07:47.015Z,5.30
2023-03-05T02:10:17.939Z,5.63
2023-03-05T02:12:46.450Z,5.70
2023-03-05T02:15:14.681Z,4.75
2023-03-05T02:17:44.189Z,6.18
2023-03-05T02:20:17.978Z,7.38
2023-03-05T02:25:18.402Z,4.80
2023-03-05T02:27:53.602Z,5.55
2023-03-05T02:30:21.922Z,6.05
2023-03-05T02:32:50.282Z,6.07
2023-03-05T02:35:19.874Z,5.72
2023-03-05T02:37:49.412Z,6.55
2023-03-05T02:40:18.645Z,6.15
2023-03-05T02:42:47.002Z,5.72
2023-03-05T02:45:16.716Z,5.95
2023-03-05T02:47:44.962Z,5.75
2023-03-05T02:50:14.069Z,4.95
2023-03-05T02:52:42.250Z,4.70
2023-03-05T02:55:16.266Z,6.20
2023-03-05T02:57:45.673Z,5.13
2023-03-05T03:00:14.887Z,5.97
2023-03-05T03:02:43.282Z,6.15
2023-03-05T03:05:11.801Z,4.80
2023-03-05T03:07:40.190Z,5.30
2023-03-05T03:10:09.042Z,4.10
2023-03-05T03:12:39.915Z,5.15
2023-03-05T03:15:10.441Z,4.80
2023-03-05T03:17:39.026Z,4.90
2023-03-05T03:20:10.375Z,4.88
2023-03-05T03:22:38.661Z,4.03
2023-03-05T03:25:07.552Z,4.28
2023-03-05T03:27:35.811Z,4.43
2023-03-05T03:30:06.154Z,4.20
2023-03-05T03:32:34.936Z,3.78
2023-03-05T03:35:03.299Z,3.40
2023-03-05T03:37:31.704Z,3.90
2023-03-05T03:39:59.756Z,3.10
2023-03-05T03:42:27.905Z,3.38
2023-03-05T03:44:56.010Z,3.20
2023-03-05T03:47:25.487Z,4.25
2023-03-05T03:49:55.167Z,3.83
2023-03-05T03:52:24.018Z,3.53
2023-03-05T03:54:53.149Z,3.42
2023-03-05T03:57:21.308Z,3.88
2023-03-05T03:59:50.371Z,4.25
2023-03-05T04:02:18.809Z,3.70
2023-03-05T04:04:48.387Z,3.65
2023-03-05T04:07:16.538Z,3.50
2023-03-05T04:09:44.701Z,3.47
2023-03-05T04:12:17.938Z,2.90
2023-03-05T04:14:46.865Z,3.40
2023-03-05T04:17:16.259Z,3.72
2023-03-05T04:19:44.790Z,3.78
2023-03-05T04:22:14.916Z,4.65
2023-03-05T04:24:43.182Z,4.13
2023-03-05T04:27:12.029Z,4.22
2023-03-05T04:29:40.226Z,5.03
2023-03-05T04:32:09.519Z,4.75
2023-03-05T04:34:39.375Z,5.28
2023-03-05T04:37:07.495Z,5.05
2023-03-05T04:39:37.074Z,4.70
2023-03-05T04:42:05.350Z,5.57
2023-03-05T04:44:33.563Z,4.45
2023-03-05T04:47:01.612Z,5.15
2023-03-05T04:49:30.391Z,4.32
2023-03-05T04:51:59.687Z,4.30
2023-03-05T04:54:28.238Z,3.63
2023-03-05T04:56:57.642Z,5.07
2023-03-05T04:59:25.808Z,4.72
2023-03-05T05:01:53.916Z,4.03
2023-03-05T05:04:22.093Z,5.30
2023-03-05T05:06:50.336Z,4.43
2023-03-05T05:09:18.467Z,4.38
2023-03-05T05:11:46.543Z,3.85
2023-03-05T05:14:16.567Z,4.50
2023-03-05T05:16:44.766Z,4.82
2023-03-05T05:19:13.089Z,3.83
2023-03-05T05:21:41.273Z,4.05
2023-03-05T05:24:09.804Z,4.68
2023-03-05T05:26:37.890Z,4.68
2023-03-05T05:29:06.115Z,4.38
2023-03-05T05:31:35.603Z,4.68
2023-03-05T05:34:03.761Z,4.13
2023-03-05T05:36:31.973Z,3.67
2023-03-05T05:39:00.165Z,3.00
2023-03-05T05:41:28.275Z,4.03
2023-03-05T05:43:56.518Z,3.05
2023-03-05T05:46:25.565Z,3.17
2023-03-05T05:48:55.169Z,4.07
2023-03-05T05:51:24.689Z,2.78
2023-03-05T05:53:53.111Z,3.53
2023-03-05T05:56:21.367Z,2.65
2023-03-05T05:58:50.248Z,3.42
2023-03-05T06:01:21.658Z,2.65
2023-03-05T06:03:50.148Z,3.65
2023-03-05T06:06:22.658Z,2.13
2023-03-05T06:08:52.040Z,3.40
2023-03-05T06:11:20.981Z,3.60
2023-03-05T06:13:50.329Z,3.65
2023-03-05T06:16:21.036Z,2.90
2023-03-05T06:18:49.404Z,2.60
2023-03-05T06:21:21.599Z,4.13
2023-03-05T06:23:50.507Z,3.20
2023-03-05T06:26:21.138Z,3.33
2023-03-05T06:28:49.645Z,3.72
2023-03-05T06:31:19.405Z,3.30
2023-03-05T06:33:47.663Z,3.33
2023-03-05T06:36:21.703Z,3.58
2023-03-05T06:38:52.114Z,3.20
2023-03-05T06:41:23.359Z,2.60
2023-03-05T06:43:51.653Z,2.72
2023-03-05T06:46:22.531Z,2.65
2023-03-05T06:48:51.811Z,3.67
2023-03-05T06:51:24.703Z,3.17
2023-03-05T06:53:54.008Z,2.87
2023-03-05T06:56:22.997Z,2.78
2023-03-05T06:58:52.799Z,2.63
2023-03-05T07:01:23.695Z,2.50
2023-03-05T07:03:52.879Z,2.75
2023-03-05T07:06:23.254Z,2.33
2023-03-05T07:08:51.862Z,2.70
2023-03-05T07:11:21.894Z,3.05
2023-03-05T07:13:50.823Z,2.50
2023-03-05T07:16:21.409Z,2.88
2023-03-05T07:18:50.138Z,2.78
2023-03-05T07:21:20.473Z,3.40
2023-03-05T07:23:50.548Z,2.90
2023-03-05T07:26:18.921Z,3.15
2023-03-05T07:28:47.739Z,1.75
2023-03-05T07:31:19.063Z,2.17
2023-03-05T07:33:47.888Z,2.30
2023-03-05T07:36:17.039Z,2.08
2023-03-05T07:38:45.608Z,2.00
2023-03-05T07:41:19.833Z,2.00
2023-03-05T07:43:49.326Z,1.92
2023-03-05T07:46:20.087Z,1.95
2023-03-05T07:48:48.370Z,2.30
2023-03-05T07:51:18.465Z,2.58
2023-03-05T07:53:47.684Z,2.35
2023-03-05T07:56:23.436Z,1.88
2023-03-05T07:58:51.733Z,2.00
2023-03-05T08:01:20.117Z,1.70
2023-03-05T08:03:48.329Z,1.60
2023-03-05T08:06:17.077Z,1.65
2023-03-05T08:08:45.271Z,1.83
2023-03-05T08:11:15.513Z,2.30
2023-03-05T08:13:46.232Z,2.25
2023-03-05T08:16:16.768Z,2.30
2023-03-05T08:18:45.343Z,1.83
2023-03-05T08:21:20.970Z,1.83
2023-03-05T08:23:49.421Z,2.10
2023-03-05T08:26:20.441Z,1.55
2023-03-05T08:28:50.693Z,1.85
2023-03-05T08:31:21.322Z,1.73
2023-03-05T08:33:50.331Z,1.95
2023-03-05T08:36:18.592Z,2.13
2023-03-05T08:38:48.533Z,1.60
2023-03-05T08:41:18.298Z,2.03
2023-03-05T08:43:46.564Z,2.17
2023-03-05T08:46:18.151Z,1.80
2023-03-05T08:48:46.517Z,2.15
2023-03-05T08:51:16.439Z,2.30
2023-03-05T08:53:46.479Z,2.17
2023-03-05T08:56:15.363Z,2.28
2023-03-05T08:58:44.049Z,2.30
2023-03-05T09:01:12.399Z,1.90
2023-03-05T09:03:42.596Z,2.55
2023-03-05T09:06:13.441Z,1.83
2023-03-05T09:08:41.924Z,2.70
2023-03-05T09:11:12.742Z,1.98
2023-03-05T09:13:41.088Z,1.80
2023-03-05T09:16:12.527Z,1.95
2023-03-05T09:18:42.684Z,2.45
2023-03-05T09:21:13.095Z,2.00
2023-03-05T09:23:42.136Z,2.15
2023-03-05T09:26:12.192Z,2.13
2023-03-05T09:28:40.941Z,2.08
2023-03-05T09:31:10.297Z,1.80
2023-03-05T09:33:39.387Z,2.08
2023-03-05T09:36:19.600Z,1.75
2023-03-05T09:38:47.790Z,1.67
2023-03-05T09:41:24.832Z,2.17
2023-03-05T09:44:01.453Z,2.10
2023-03-05T09:46:42.866Z,2.13
2023-03-05T09:49:19.040Z,2.10
2023-03-05T09:51:56.406Z,1.52
2023-03-05T09:54:31.605Z,1.45
2023-03-05T09:57:04.904Z,1.55
2023-03-05T09:59:44.203Z,1.17
2023-03-05T10:02:19.501Z,1.75
2023-03-05T10:04:53.555Z,1.55
2023-03-05T10:07:28.774Z,2.15
2023-03-05T10:10:00.311Z,1.70
2023-03-05T10:12:42.443Z,1.48
2023-03-05T10:15:13.645Z,1.30
2023-03-05T10:18:06.742Z,1.27
2023-03-05T10:20:55.112Z,1.10
2023-03-05T10:23:30.820Z,1.67
2023-03-05T10:26:06.477Z,1.35
2023-03-05T10:28:39.736Z,1.65
2023-03-05T10:31:21.572Z,1.70
2023-03-05T10:34:02.525Z,1.77
2023-03-05T10:36:46.831Z,1.75
2023-03-05T10:39:51.233Z,1.67
2023-03-05T10:42:31.017Z,2.10
2023-03-05T10:45:01.801Z,1.80
2023-03-05T10:47:44.610Z,1.15
2023-03-05T10:50:18.696Z,1.90
2023-03-05T10:52:51.799Z,2.00
2023-03-05T10:55:23.732Z,1.97
2023-03-05T10:57:52.073Z,2.03
2023-03-05T11:00:23.305Z,1.42
2023-03-05T11:02:57.138Z,1.77
2023-03-05T11:05:45.872Z,1.40
2023-03-05T11:08:27.211Z,1.08
2023-03-05T11:11:17.146Z,1.20
2023-03-05T11:13:53.368Z,1.02
2023-03-05T11:16:24.634Z,1.50
2023-03-05T11:19:17.630Z,1.20
2023-03-05T11:21:46.612Z,1.30
2023-03-05T11:24:16.828Z,0.60
2023-03-05T11:26:50.427Z,1.50
2023-03-05T11:29:22.488Z,1.10
2023-03-05T11:31:51.334Z,1.58
2023-03-05T11:34:26.036Z,1.25
2023-03-05T11:37:21.055Z,1.02
2023-03-05T11:39:50.257Z,0.68
2023-03-05T11:42:25.320Z,0.60
2023-03-05T11:44:56.419Z,1.23
2023-03-05T11:47:29.824Z,1.75
2023-03-05T11:50:14.358Z,1.25
2023-03-05T11:52:48.040Z,1.15
2023-03-05T11:55:19.528Z,0.68
2023-03-05T11:57:54.487Z,1.10
2023-03-05T12:00:31.090Z,0.82
2023-03-05T12:03:03.631Z,1.25
2023-03-05T12:05:33.414Z,1.30
2023-03-05T12:08:03.510Z,0.77
2023-03-05T12:10:32.136Z,0.75
2023-03-05T12:13:07.063Z,1.00
2023-03-05T12:15:47.749Z,0.88
2023-03-05T12:18:26.030Z,0.77
2023-03-05T12:21:04.249Z,1.10
2023-03-05T12:23:46.607Z,1.00
2023-03-05T12:26:15.088Z,0.45
2023-03-05T12:28:59.696Z,0.98
2023-03-05T12:31:37.836Z,0.50
2023-03-05T12:34:44.152Z,1.45
2023-03-05T12:37:13.327Z,0.73
2023-03-05T12:39:52.676Z,0.75
2023-03-05T12:42:46.237Z,0.63
2023-03-05T12:45:36.727Z,0.93
2023-03-05T12:48:42.234Z,1.60
2023-03-05T12:51:14.650Z,1.13
2023-03-05T12:53:42.859Z,1.13
2023-03-05T12:56:25.022Z,1.02
2023-03-05T12:58:58.060Z,1.33
2023-03-05T13:01:44.028Z,1.15
2023-03-05T13:04:19.818Z,1.27
2023-03-05T13:06:58.425Z,1.05
2023-03-05T13:09:29.979Z,1.05
2023-03-05T13:11:59.386Z,1.52
2023-03-05T13:14:33.852Z,0.98
2023-03-05T13:17:04.837Z,0.68
2023-03-05T13:19:36.098Z,1.15
2023-03-05T13:22:06.099Z,1.35
2023-03-05T13:24:35.414Z,1.05
2023-03-05T13:27:03.617Z,1.23
2023-03-05T13:29:31.779Z,1.05
2023-03-05T13:32:01.781Z,0.88
2023-03-05T13:34:46.099Z,1.13
2023-03-05T13:37:19.294Z,1.35
2023-03-05T13:39:51.125Z,1.77
2023-03-05T13:42:21.374Z,1.05
2023-03-05T13:44:55.510Z,1.17
2023-03-05T13:47:26.356Z,1.45
2023-03-05T13:50:00.108Z,1.65
2023-03-05T13:52:30.909Z,1.23
2023-03-05T13:54:59.893Z,1.13
2023-03-05T13:57:37.356Z,1.27
2023-03-05T14:00:07.404Z,1.17
2023-03-05T14:02:36.216Z,1.80
2023-03-05T14:05:14.850Z,1.58
2023-03-05T14:07:44.146Z,1.58
2023-03-05T14:10:30.458Z,1.40
2023-03-05T14:12:59.857Z,0.90
2023-03-05T14:15:29.946Z,0.82
2023-03-05T14:18:22.819Z,0.95
2023-03-05T14:21:12.312Z,0.85
2023-03-05T14:23:43.563Z,1.08
2023-03-05T14:26:21.934Z,1.45
2023-03-05T14:28:53.989Z,1.40
2023-03-05T14:31:23.842Z,1.67
2023-03-05T14:33:53.754Z,1.30
2023-03-05T14:36:25.613Z,1.30
2023-03-05T14:38:54.917Z,1.67
2023-03-05T14:41:32.098Z,1.65
2023-03-05T14:44:00.277Z,1.38
2023-03-05T14:46:28.742Z,1.55
2023-03-05T14:48:56.949Z,2.30
2023-03-05T14:51:26.711Z,1.45
2023-03-05T14:53:55.137Z,1.75
2023-03-05T14:56:26.706Z,2.15
2023-03-05T14:58:55.463Z,1.60
2023-03-05T15:01:24.416Z,2.03
2023-03-05T15:03:52.798Z,2.17
2023-03-05T15:06:26.342Z,1.73
2023-03-05T15:11:23.864Z,1.10
2023-03-05T15:13:51.943Z,1.73
2023-03-05T15:16:20.900Z,1.58
2023-03-05T15:18:49.643Z,1.17
2023-03-05T15:21:17.778Z,1.17
2023-03-05T15:23:46.070Z,1.08
2023-03-05T15:26:16.499Z,1.13
2023-03-05T15:28:45.029Z,1.10
2023-03-05T15:31:13.147Z,0.98
2023-03-05T15:33:41.911Z,1.40
2023-03-05T15:36:10.652Z,1.23
2023-03-05T15:38:39.096Z,1.45
2023-03-05T15:41:07.456Z,1.48
2023-03-05T15:43:38.447Z,1.33
2023-03-05T15:46:07.095Z,1.48
2023-03-05T15:48:35.218Z,2.20
2023-03-05T15:51:06.765Z,2.53
2023-03-05T15:53:34.998Z,2.40
2023-03-05T15:56:03.176Z,2.50
2023-03-05T15:58:31.346Z,2.97
2023-03-05T16:01:01.004Z,3.00
2023-03-05T16:03:29.230Z,2.78
2023-03-05T16:05:57.369Z,3.40
2023-03-05T16:08:25.620Z,2.60
2023-03-05T16:10:53.812Z,2.95
2023-03-05T16:13:21.949Z,3.22
2023-03-05T16:15:53.247Z,3.08
2023-03-05T16:18:24.454Z,3.15
2023-03-05T16:20:53.363Z,2.45
2023-03-05T16:23:22.350Z,2.83
2023-03-05T16:25:50.764Z,4.65
2023-03-05T16:28:19.164Z,4.28
2023-03-05T16:30:54.134Z,3.75
2023-03-05T16:33:23.844Z,3.17
2023-03-05T16:36:09.254Z,2.85
2023-03-05T16:38:37.455Z,3.17
2023-03-05T16:41:08.591Z,3.90
2023-03-05T16:43:37.103Z,3.15
2023-03-05T16:46:05.294Z,3.25
2023-03-05T16:48:35.842Z,3.00
2023-03-05T16:51:04.280Z,3.00
2023-03-05T16:53:32.910Z,4.25
2023-03-05T16:56:04.172Z,3.60
2023-03-05T16:58:33.409Z,3.88
2023-03-05T17:01:01.829Z,3.20
2023-03-05T17:03:30.063Z,3.58
2023-03-05T17:05:59.529Z,3.50
2023-03-05T17:08:27.702Z,3.58
2023-03-05T17:10:55.733Z,3.72
2023-03-05T17:13:23.874Z,3.67
2023-03-05T17:15:53.332Z,3.65
2023-03-05T17:18:24.403Z,3.72
2023-03-05T17:20:52.575Z,3.70
2023-03-05T17:23:22.095Z,3.20
2023-03-05T17:25:50.233Z,4.38
2023-03-05T17:28:18.742Z,3.65
2023-03-05T17:30:47.496Z,4.38
2023-03-05T17:33:15.630Z,4.25
2023-03-05T17:35:47.215Z,4.03
2023-03-05T17:38:15.692Z,3.70
2023-03-05T17:40:45.253Z,3.67
2023-03-05T17:43:13.562Z,3.97
2023-03-05T17:45:42.502Z,3.88
2023-03-05T17:48:12.250Z,4.50
2023-03-05T17:50:40.809Z,4.18
2023-03-05T17:53:09.684Z,3.70
2023-03-05T17:55:37.842Z,5.45
2023-03-05T17:58:07.382Z,5.00
2023-03-05T18:00:36.041Z,4.38
2023-03-05T18:03:04.390Z,4.32
2023-03-05T18:05:33.102Z,4.30
2023-03-05T18:08:03.444Z,4.38
2023-03-05T18:10:32.629Z,3.88
2023-03-05T18:13:00.987Z,3.70
2023-03-05T18:15:31.211Z,2.95
2023-03-05T18:17:59.720Z,3.97
2023-03-05T18:20:31.758Z,3.42
2023-03-05T18:23:01.511Z,4.10
2023-03-05T18:25:31.897Z,4.70
2023-03-05T18:28:00.851Z,3.80
2023-03-05T18:30:31.349Z,4.05
2023-03-05T18:32:59.624Z,3.70
2023-03-05T18:35:29.405Z,3.55
2023-03-05T18:37:58.168Z,3.72
2023-03-05T18:40:29.770Z,3.65
2023-03-05T18:43:01.147Z,3.92
2023-03-05T18:45:34.047Z,3.97
2023-03-05T18:48:02.275Z,4.20
2023-03-05T18:50:31.312Z,3.38
2023-03-05T18:52:59.520Z,3.13
2023-03-05T18:55:29.663Z,3.10
2023-03-05T18:57:58.296Z,2.65
2023-03-05T19:00:28.167Z,3.40
2023-03-05T19:02:58.549Z,2.95
2023-03-05T19:05:27.944Z,3.20
2023-03-05T19:07:56.838Z,2.83
2023-03-05T19:10:25.901Z,2.70
2023-03-05T19:13:05.638Z,4.38
2023-03-05T19:15:33.875Z,2.42
2023-03-05T19:18:03.311Z,2.92
2023-03-05T19:20:31.546Z,2.45
2023-03-05T19:22:59.685Z,2.78
2023-03-05T19:25:27.837Z,2.78
2023-03-05T19:27:55.944Z,4.53
2023-03-05T19:30:24.201Z,3.03
2023-03-05T19:32:52.502Z,2.42
2023-03-05T19:35:22.381Z,1.65
2023-03-05T19:37:50.463Z,2.03
2023-03-05T19:40:19.060Z,1.95
2023-03-05T19:42:47.189Z,1.83
2023-03-05T19:45:15.379Z,1.50
2023-03-05T19:47:43.460Z,1.67
2023-03-05T19:50:16.544Z,1.48
2023-03-05T19:52:46.176Z,1.63
2023-03-05T19:55:14.309Z,1.27
2023-03-05T19:57:42.579Z,1.92
2023-03-05T20:00:11.576Z,1.35
2023-03-05T20:02:39.793Z,1.45
2023-03-05T20:05:08.729Z,1.58
2023-03-05T20:07:36.852Z,1.50
2023-03-05T20:10:07.214Z,2.05
2023-03-05T20:12:36.493Z,1.15
2023-03-05T20:15:04.829Z,1.55
2023-03-05T20:17:32.960Z,1.75
2023-03-05T20:20:01.941Z,1.45
2023-03-05T20:22:30.068Z,1.40
2023-03-05T20:24:58.644Z,1.80
2023-03-05T20:27:28.120Z,1.30
2023-03-05T20:29:56.200Z,1.55
2023-03-05T20:32:24.376Z,1.80
2023-03-05T20:34:52.563Z,1.35
2023-03-05T20:37:20.950Z,1.60
2023-03-05T20:39:51.016Z,1.95
2023-03-05T20:42:19.144Z,1.85
2023-03-05T20:44:48.575Z,1.40
2023-03-05T20:47:30.770Z,1.52
2023-03-05T20:49:59.127Z,1.63
2023-03-05T20:52:27.216Z,1.60
2023-03-05T20:54:55.360Z,1.42
2023-03-05T20:57:23.503Z,0.90
2023-03-05T20:59:52.845Z,1.63
2023-03-05T21:02:21.077Z,0.88
2023-03-05T21:04:49.312Z,1.20
2023-03-05T21:07:17.412Z,1.20
2023-03-05T21:09:45.554Z,0.65
2023-03-05T21:12:14.015Z,0.98
2023-03-05T21:14:42.169Z,1.20
2023-03-05T21:17:11.752Z,1.65
2023-03-05T21:19:40.271Z,1.13
2023-03-05T21:22:08.572Z,1.08
2023-03-05T21:24:52.034Z,1.30
2023-03-05T21:27:20.496Z,1.10
2023-03-05T21:29:48.624Z,1.00
2023-03-05T21:32:18.101Z,1.13
2023-03-05T21:34:46.226Z,1.25
2023-03-05T21:37:14.484Z,1.08
2023-03-05T21:39:42.585Z,1.23
2023-03-05T21:42:10.962Z,0.93
2023-03-05T21:44:39.083Z,1.33
2023-03-05T21:47:07.336Z,1.30
2023-03-05T21:49:36.694Z,1.05
2023-03-05T21:52:09.370Z,1.48
2023-03-05T21:54:37.725Z,1.45
2023-03-05T21:57:07.138Z,1.17
2023-03-05T21:59:35.389Z,1.27
2023-03-05T22:02:03.560Z,1.55
2023-03-05T22:04:31.748Z,1.73
2023-03-05T22:07:01.264Z,1.52
2023-03-05T22:09:29.317Z,1.35
2023-03-05T22:11:57.446Z,1.33
2023-03-05T22:14:25.603Z,1.15
2023-03-05T22:16:56.969Z,1.00
2023-03-05T22:19:25.205Z,0.93
2023-03-05T22:21:53.292Z,0.77
2023-03-05T22:24:25.054Z,0.75
2023-03-05T22:26:53.263Z,0.80
2023-03-05T22:29:21.334Z,0.95
2023-03-05T22:31:49.664Z,0.63
2023-03-05T22:34:17.729Z,1.00
2023-03-05T22:36:45.924Z,0.65
2023-03-05T22:39:14.023Z,1.13
2023-03-05T22:41:43.931Z,1.05
2023-03-05T22:44:12.053Z,1.00
2023-03-05T22:46:40.232Z,0.70
2023-03-05T22:49:08.271Z,1.05
2023-03-05T22:51:36.361Z,0.90
2023-03-05T22:54:04.583Z,0.82
2023-03-05T22:56:32.797Z,1.10
2023-03-05T22:59:02.152Z,1.02
2023-03-05T23:01:30.323Z,0.63
2023-03-05T23:04:04.018Z,1.17
2023-03-05T23:06:32.229Z,0.80
2023-03-05T23:09:00.500Z,0.63
2023-03-05T23:11:28.610Z,1.00
2023-03-05T23:13:56.693Z,0.95
2023-03-05T23:16:26.390Z,1.05
2023-03-05T23:18:54.852Z,0.93
2023-03-05T23:21:23.009Z,0.65
2023-03-05T23:23:53.107Z,1.30
2023-03-05T23:26:21.253Z,0.90
2023-03-05T23:28:49.304Z,1.42
2023-03-05T23:31:18.897Z,0.93
2023-03-05T23:33:48.431Z,0.88
2023-03-05T23:36:19.910Z,1.23
2023-03-05T23:38:48.851Z,0.90
2023-03-05T23:41:16.921Z,1.05
2023-03-05T23:43:45.097Z,1.05
2023-03-05T23:46:13.687Z,0.88
2023-03-05T23:48:42.153Z,0.98
2023-03-05T23:51:12.324Z,0.98
2023-03-05T23:53:40.507Z,0.90
2023-03-05T23:56:11.376Z,1.17
2023-03-05T23:58:40.109Z,1.10
